Time,TemperatureF,DewpointF,PressureIn,WindDirection,WindDirectionDegrees,WindSpeedMPH,WindSpeedGustMPH,Humidity,HourlyPrecipIn,Conditions,Clouds,dailyrainin,SoftwareType,DateUTC
2013-01-17 00:04:00,30.5,24.0,30.10,NNW,346,0.0,3.0,78,0.00,,,0.00,weatherlink.com 1.10,2013-01-17 05:04:00,
2013-01-17 00:19:00,30.5,25.0,30.10,West,263,0.0,1.0,79,0.00,,,0.00,weatherlink.com 1.10,2013-01-17 05:19:00,
2013-01-17 00:34:00,30.5,24.0,30.10,NNE,30,0.0,0.0,78,0.00,,,0.00,weatherlink.com 1.10,2013-01-17 05:34:00,
2013-01-17 00:49:00,30.5,24.0,30.09,NW,308,0.0,0.0,78,0.00,,,0.00,weatherlink.com 1.10,2013-01-17 05:49:00,
2013-01-17 01:04:00,30.3,25.0,30.09,NW,324,0.0,1.0,80,0.00,,,0.00,weatherlink.com 1.10,2013-01-17 06:04:00,
2013-01-17 01:19:00,30.0,24.0,30.10,NNW,346,0.0,1.0,79,0.00,,,0.00,weatherlink.com 1.10,2013-01-17 06:19:00,
2013-01-17 01:34:00,29.6,24.0,30.10,WNW,300,0.0,2.0,80,0.00,,,0.00,weatherlink.com 1.10,2013-01-17 06:34:00,
2013-01-17 01:49:00,29.2,24.0,30.11,WSW,256,0.0,1.0,81,0.00,,,0.00,weatherlink.com 1.10,2013-01-17 06:49:00,
2013-01-17 02:04:00,28.9,24.0,30.11,WSW,256,0.0,0.0,81,0.00,,,0.00,weatherlink.com 1.10,2013-01-17 07:04:00,
2013-01-17 02:19:00,28.7,24.0,30.12,NNW,337,0.0,1.0,82,0.00,,,0.00,weatherlink.com 1.10,2013-01-17 07:19:00,
2013-01-17 02:34:00,28.5,24.0,30.11,NNW,338,0.0,0.0,82,0.00,,,0.00,weatherlink.com 1.10,2013-01-17 07:34:00,
2013-01-17 02:49:00,28.1,24.0,30.12,NNW,338,0.0,0.0,83,0.00,,,0.00,weatherlink.com 1.10,2013-01-17 07:49:00,
2013-01-17 03:04:00,28.2,24.0,30.12,NNW,338,0.0,0.0,83,0.00,,,0.00,weatherlink.com 1.10,2013-01-17 08:04:00,
2013-01-17 03:19:00,27.8,24.0,30.12,NNW,338,0.0,0.0,84,0.00,,,0.00,weatherlink.com 1.10,2013-01-17 08:19:00,
2013-01-17 03:34:00,27.9,24.0,30.13,NNW,338,0.0,0.0,84,0.00,,,0.00,weatherlink.com 1.10,2013-01-17 08:34:00,
2013-01-17 03:49:00,27.5,24.0,30.13,NNW,338,0.0,0.0,86,0.00,,,0.00,weatherlink.com 1.10,2013-01-17 08:49:00,
2013-01-17 04:04:00,27.3,24.0,30.13,NNW,337,0.0,0.0,87,0.00,,,0.00,weatherlink.com 1.10,2013-01-17 09:04:00,
2013-01-17 04:19:00,27.2,24.0,30.13,NNW,337,0.0,0.0,86,0.00,,,0.00,weatherlink.com 1.10,2013-01-17 09:19:00,
2013-01-17 04:34:00,27.0,24.0,30.14,NNW,338,0.0,0.0,87,0.00,,,0.00,weatherlink.com 1.10,2013-01-17 09:34:00,
2013-01-17 04:50:00,26.9,24.0,30.13,NNW,338,0.0,0.0,87,0.00,,,0.00,weatherlink.com 1.10,2013-01-17 09:50:00,
2013-01-17 05:05:00,27.1,24.0,30.13,NNW,338,0.0,0.0,86,0.00,,,0.00,weatherlink.com 1.10,2013-01-17 10:05:00,
2013-01-17 05:20:00,26.8,24.0,30.13,NNW,338,0.0,0.0,87,0.00,,,0.00,weatherlink.com 1.10,2013-01-17 10:20:00,
2013-01-17 05:35:00,27.2,24.0,30.14,NNW,340,0.0,0.0,87,0.00,,,0.00,weatherlink.com 1.10,2013-01-17 10:35:00,
2013-01-17 05:50:00,27.1,24.0,30.14,North,3,0.0,0.0,87,0.00,,,0.00,weatherlink.com 1.10,2013-01-17 10:50:00,
2013-01-17 06:05:00,27.0,24.0,30.14,North,3,0.0,0.0,87,0.00,,,0.00,weatherlink.com 1.10,2013-01-17 11:05:00,
2013-01-17 06:20:00,26.9,24.0,30.15,North,4,0.0,0.0,88,0.00,,,0.00,weatherlink.com 1.10,2013-01-17 11:20:00,
2013-01-17 06:35:00,27.0,24.0,30.16,NNE,23,1.0,3.0,89,0.00,,,0.00,weatherlink.com 1.10,2013-01-17 11:35:00,
2013-01-17 06:50:00,27.1,25.0,30.16,NNE,23,0.0,0.0,90,0.00,,,0.00,weatherlink.com 1.10,2013-01-17 11:50:00,
2013-01-17 07:05:00,27.6,25.0,30.16,NNE,20,0.0,0.0,90,0.00,,,0.00,weatherlink.com 1.10,2013-01-17 12:05:00,
2013-01-17 07:20:00,28.0,26.0,30.15,North,4,0.0,0.0,90,0.00,,,0.00,weatherlink.com 1.10,2013-01-17 12:20:00,
2013-01-17 07:35:00,28.5,26.0,30.16,NNW,336,0.0,1.0,89,0.00,,,0.00,weatherlink.com 1.10,2013-01-17 12:35:00,
2013-01-17 07:50:00,29.0,26.0,30.16,NNW,336,1.0,1.0,88,0.00,,,0.00,weatherlink.com 1.10,2013-01-17 12:50:00,
2013-01-17 08:05:00,29.1,26.0,30.17,NNW,330,2.0,2.0,88,0.00,,,0.00,weatherlink.com 1.10,2013-01-17 13:05:00,
2013-01-17 08:20:00,29.3,26.0,30.17,WNW,302,1.0,2.0,87,0.00,,,0.00,weatherlink.com 1.10,2013-01-17 13:20:00,
2013-01-17 08:35:00,29.3,26.0,30.18,NW,304,1.0,2.0,87,0.00,,,0.00,weatherlink.com 1.10,2013-01-17 13:35:00,
2013-01-17 08:50:00,29.0,26.0,30.19,NNW,331,0.0,2.0,87,0.00,,,0.00,weatherlink.com 1.10,2013-01-17 13:50:00,
2013-01-17 09:05:00,29.4,26.0,30.19,NW,316,1.0,3.0,86,0.00,,,0.00,weatherlink.com 1.10,2013-01-17 14:05:00,
2013-01-17 09:20:00,30.0,26.0,30.20,WNW,289,2.0,5.0,85,0.00,,,0.00,weatherlink.com 1.10,2013-01-17 14:20:00,
2013-01-17 09:35:00,31.8,28.0,30.21,NW,324,1.0,3.0,84,0.00,,,0.00,weatherlink.com 1.10,2013-01-17 14:35:00,
2013-01-17 09:50:00,33.9,29.0,30.21,North,359,1.0,4.0,82,0.00,,,0.00,weatherlink.com 1.10,2013-01-17 14:50:00,
2013-01-17 10:05:00,35.7,30.0,30.22,WNW,290,0.0,4.0,80,0.00,,,0.00,weatherlink.com 1.10,2013-01-17 15:05:00,
2013-01-17 10:20:00,37.5,31.0,30.22,NNW,343,3.0,8.0,78,0.00,,,0.00,weatherlink.com 1.10,2013-01-17 15:20:00,
2013-01-17 10:35:00,38.0,32.0,30.23,NW,319,3.0,8.0,78,0.00,,,0.00,weatherlink.com 1.10,2013-01-17 15:35:00,
2013-01-17 10:50:00,38.5,32.0,30.22,North,358,1.0,5.0,76,0.00,,,0.00,weatherlink.com 1.10,2013-01-17 15:50:00,
2013-01-17 11:05:00,39.6,32.0,30.22,North,358,1.0,6.0,75,0.00,,,0.00,weatherlink.com 1.10,2013-01-17 16:05:00,
2013-01-17 11:20:00,40.6,33.0,30.22,NE,36,3.0,5.0,75,0.00,,,0.00,weatherlink.com 1.10,2013-01-17 16:20:00,
2013-01-17 11:35:00,41.3,33.0,30.22,NW,306,1.0,7.0,73,0.00,,,0.00,weatherlink.com 1.10,2013-01-17 16:35:00,
2013-01-17 11:50:00,41.9,33.0,30.21,West,274,2.0,6.0,72,0.00,,,0.00,weatherlink.com 1.10,2013-01-17 16:50:00,
2013-01-17 12:06:00,42.7,34.0,30.21,NNW,346,3.0,8.0,70,0.00,,,0.00,weatherlink.com 1.10,2013-01-17 17:06:00,
2013-01-17 12:21:00,42.5,33.0,30.20,NW,322,4.0,6.0,70,0.00,,,0.00,weatherlink.com 1.10,2013-01-17 17:21:00,
2013-01-17 12:36:00,42.3,34.0,30.19,NE,38,4.0,6.0,71,0.00,,,0.00,weatherlink.com 1.10,2013-01-17 17:36:00,
2013-01-17 12:51:00,42.8,34.0,30.18,West,271,2.0,5.0,71,0.00,,,0.00,weatherlink.com 1.10,2013-01-17 17:51:00,
2013-01-17 13:06:00,43.1,34.0,30.18,WNW,283,2.0,10.0,69,0.00,,,0.00,weatherlink.com 1.10,2013-01-17 18:06:00,
2013-01-17 13:21:00,43.2,33.0,30.17,NE,41,1.0,8.0,67,0.00,,,0.00,weatherlink.com 1.10,2013-01-17 18:21:00,
2013-01-17 13:36:00,43.1,32.0,30.17,WNW,292,3.0,9.0,66,0.00,,,0.00,weatherlink.com 1.10,2013-01-17 18:36:00,
2013-01-17 13:51:00,42.7,32.0,30.17,NNW,341,2.0,8.0,66,0.00,,,0.00,weatherlink.com 1.10,2013-01-17 18:51:00,
2013-01-17 14:06:00,42.8,32.0,30.17,NE,40,1.0,11.0,66,0.00,,,0.00,weatherlink.com 1.10,2013-01-17 19:06:00,
2013-01-17 14:21:00,42.1,31.0,30.17,NNE,22,4.0,8.0,65,0.00,,,0.00,weatherlink.com 1.10,2013-01-17 19:21:00,
2013-01-17 14:36:00,42.1,30.0,30.17,ENE,72,3.0,12.0,62,0.00,,,0.00,weatherlink.com 1.10,2013-01-17 19:36:00,
2013-01-17 15:06:00,42.2,30.0,30.18,NNW,342,5.0,11.0,62,0.00,,,0.00,weatherlink.com 1.10,2013-01-17 20:06:00,
2013-01-17 15:21:00,42.1,29.0,30.18,West,276,3.0,7.0,60,0.00,,,0.00,weatherlink.com 1.10,2013-01-17 20:21:00,
2013-01-17 15:36:00,42.2,29.0,30.19,SSE,163,1.0,6.0,60,0.00,,,0.00,weatherlink.com 1.10,2013-01-17 20:36:00,
2013-01-17 15:51:00,41.3,28.0,30.19,NW,325,3.0,10.0,60,0.00,,,0.00,weatherlink.com 1.10,2013-01-17 20:51:00,
2013-01-17 16:07:00,40.3,28.0,30.20,WNW,287,1.0,8.0,61,0.00,,,0.00,weatherlink.com 1.10,2013-01-17 21:07:00,
2013-01-17 16:21:00,39.7,27.0,30.20,WNW,288,3.0,9.0,60,0.00,,,0.00,weatherlink.com 1.10,2013-01-17 21:21:00,
2013-01-17 16:36:00,39.1,26.0,30.21,NW,318,1.0,13.0,59,0.00,,,0.00,weatherlink.com 1.10,2013-01-17 21:36:00,
2013-01-17 16:51:00,38.6,25.0,30.22,NNE,26,2.0,9.0,59,0.00,,,0.00,weatherlink.com 1.10,2013-01-17 21:51:00,
2013-01-17 17:06:00,37.8,25.0,30.23,NNW,347,1.0,5.0,61,0.00,,,0.00,weatherlink.com 1.10,2013-01-17 22:06:00,
2013-01-17 17:21:00,37.1,25.0,30.24,West,270,2.0,5.0,63,0.00,,,0.00,weatherlink.com 1.10,2013-01-17 22:21:00,
2013-01-17 17:36:00,36.4,25.0,30.25,NW,322,1.0,4.0,64,0.00,,,0.00,weatherlink.com 1.10,2013-01-17 22:36:00,
2013-01-17 17:51:00,35.4,25.0,30.26,North,354,1.0,5.0,65,0.00,,,0.00,weatherlink.com 1.10,2013-01-17 22:51:00,
2013-01-17 18:06:00,34.5,24.0,30.27,NNW,342,0.0,3.0,65,0.00,,,0.00,weatherlink.com 1.10,2013-01-17 23:06:00,
2013-01-17 18:21:00,33.8,23.0,30.28,WNW,297,0.0,4.0,66,0.00,,,0.00,weatherlink.com 1.10,2013-01-17 23:21:00,
2013-01-17 18:36:00,32.9,23.0,30.29,West,281,0.0,3.0,68,0.00,,,0.00,weatherlink.com 1.10,2013-01-17 23:36:00,
2013-01-17 18:51:00,32.2,23.0,30.30,NNE,30,3.0,3.0,70,0.00,,,0.00,weatherlink.com 1.10,2013-01-17 23:51:00,
2013-01-17 19:06:00,31.8,23.0,30.31,NNW,341,1.0,5.0,70,0.00,,,0.00,weatherlink.com 1.10,2013-01-18 00:06:00,
2013-01-17 19:21:00,31.4,23.0,30.31,West,273,0.0,3.0,71,0.00,,,0.00,weatherlink.com 1.10,2013-01-18 00:21:00,
2013-01-17 19:36:00,30.7,23.0,30.32,NNW,332,0.0,1.0,72,0.00,,,0.00,weatherlink.com 1.10,2013-01-18 00:36:00,
2013-01-17 19:51:00,30.2,22.0,30.33,West,262,0.0,0.0,72,0.00,,,0.00,weatherlink.com 1.10,2013-01-18 00:51:00,
2013-01-17 20:06:00,29.4,22.0,30.34,West,263,0.0,0.0,74,0.00,,,0.00,weatherlink.com 1.10,2013-01-18 01:06:00,
2013-01-17 20:21:00,28.9,22.0,30.35,NW,319,0.0,1.0,76,0.00,,,0.00,weatherlink.com 1.10,2013-01-18 01:21:00,
2013-01-17 20:37:00,29.1,22.0,30.36,WNW,302,0.0,5.0,76,0.00,,,0.00,weatherlink.com 1.10,2013-01-18 01:37:00,
2013-01-17 20:52:00,28.5,22.0,30.36,NW,318,1.0,3.0,78,0.00,,,0.00,weatherlink.com 1.10,2013-01-18 01:52:00,
2013-01-17 21:07:00,27.9,22.0,30.37,West,276,0.0,1.0,79,0.00,,,0.00,weatherlink.com 1.10,2013-01-18 02:07:00,
2013-01-17 21:22:00,27.7,22.0,30.38,West,278,2.0,3.0,78,0.00,,,0.00,weatherlink.com 1.10,2013-01-18 02:22:00,
2013-01-17 21:37:00,27.4,21.0,30.38,NW,322,0.0,2.0,78,0.00,,,0.00,weatherlink.com 1.10,2013-01-18 02:37:00,
2013-01-17 21:52:00,27.0,21.0,30.38,NW,311,1.0,3.0,78,0.00,,,0.00,weatherlink.com 1.10,2013-01-18 02:52:00,
2013-01-17 22:07:00,26.7,21.0,30.38,WNW,283,0.0,3.0,78,0.00,,,0.00,weatherlink.com 1.10,2013-01-18 03:07:00,
2013-01-17 22:22:00,26.3,20.0,30.39,WNW,293,0.0,0.0,78,0.00,,,0.00,weatherlink.com 1.10,2013-01-18 03:22:00,
2013-01-17 22:37:00,25.8,21.0,30.40,NNW,336,0.0,1.0,81,0.00,,,0.00,weatherlink.com 1.10,2013-01-18 03:37:00,
2013-01-17 22:52:00,25.3,21.0,30.39,NNW,336,0.0,0.0,82,0.00,,,0.00,weatherlink.com 1.10,2013-01-18 03:52:00,
2013-01-17 23:07:00,24.6,20.0,30.40,North,354,0.0,0.0,83,0.00,,,0.00,weatherlink.com 1.10,2013-01-18 04:07:00,
2013-01-17 23:22:00,24.7,20.0,30.41,WNW,302,0.0,2.0,83,0.00,,,0.00,weatherlink.com 1.10,2013-01-18 04:22:00,
2013-01-17 23:37:00,24.4,20.0,30.41,NNW,342,0.0,3.0,83,0.00,,,0.00,weatherlink.com 1.10,2013-01-18 04:37:00,
2013-01-17 23:52:00,24.0,20.0,30.41,NNW,341,0.0,0.0,83,0.00,,,0.00,weatherlink.com 1.10,2013-01-18 04:52:00,